Farmville, VA

6:20 AM EDT on July 30, 2016 (GMT -0400)
HSC Athletics | | Change Station

Elev 515 ft 37.25 °N, 78.46 °W | Updated 33 seconds ago

Mostly Cloudy
Mostly Cloudy
73.5 °F
Feels Like 71 °F
N
0.0
Wind Variable Wind from SW
Gusts 5.0 mph

Today
High -- | Low -- °F
--% Chance of Precip.
Yesterday
High -- | Low -- °F
Precip. -- in
Pressure 29.95 in
Visibility 10.0 miles
Clouds Few 5000 ft
Mostly Cloudy 11000 ft
Heat Index 71 °F
Dew Point 71 °F
Humidity 93%
Rainfall 0.00 in
Snow Depth Not available.
6:16 AM 8:22 PM
Waning Crescent, 14% visible
METAR KLYH 300954Z AUTO 00000KT 10SM FEW050 BKN110 22/22 A2998 RMK AO2 SLP140 T02220217
Pressure 29.95 in
Visibility 10.0 miles
Clouds Few 5000 ft
Mostly Cloudy 11000 ft
Heat Index 71 °F
Dew Point 71 °F
Humidity 93%
Rainfall 0.00 in
Snow Depth Not available.
6:16 AM 8:22 PM
Waning Crescent, 14% visible
METAR KLYH 300954Z AUTO 00000KT 10SM FEW050 BKN110 22/22 A2998 RMK AO2 SLP140 T02220217

10-Day Weather Forecast

Almanac

Astronomy

Jul. 30, 2016 Rise Set
Actual Time
Civil Twilight
Nautical Twilight
Astronomical Twilight
Moon
Length of Visible Light
Length of Day
Tomorrow will be .
, % of the Moon is Illuminated

Today's Extremes

State Highs State Lows

Community

WunderPhotos

Upload Photos

1,928,528 photos uploaded!

WunderBlog® & News

Nearby

Air Quality

  Air Quality AQ Index Pollutant
Not available.

Snow Depth

Station Depth Elevation

Earthquake Activity

City Distance Mag. Time & Date
Minimum magnitude displayed is 2.5.

Coastal Water Temperatures

Place Temperature

Stations

Nearby Weather Stations

Station Location Temp. Windchill Dew Point Humidity Wind Precip. Elev Updated Type
                   

Watches & Warnings

There are currently no watches in effect.